sensor_id;sensor_type;location;lat;lon;timestamp;temperature;humidity
298;DHT22;133;49.626;9.680;2023-07-28T00:01:56;17.80;98.70
298;DHT22;133;49.626;9.680;2023-07-28T00:04:22;17.80;98.70
298;DHT22;133;49.626;9.680;2023-07-28T00:06:48;17.80;98.70
298;DHT22;133;49.626;9.680;2023-07-28T00:09:13;17.80;98.70
298;DHT22;133;49.626;9.680;2023-07-28T00:11:39;17.80;98.70
298;DHT22;133;49.626;9.680;2023-07-28T00:14:04;17.70;98.70
298;DHT22;133;49.626;9.680;2023-07-28T00:16:30;17.70;98.70
298;DHT22;133;49.626;9.680;2023-07-28T00:18:56;17.80;98.70
298;DHT22;133;49.626;9.680;2023-07-28T00:21:22;17.80;98.70
298;DHT22;133;49.626;9.680;2023-07-28T00:23:47;17.80;98.70
298;DHT22;133;49.626;9.680;2023-07-28T00:26:13;17.80;98.70
298;DHT22;133;49.626;9.680;2023-07-28T00:28:38;17.80;98.70
298;DHT22;133;49.626;9.680;2023-07-28T00:31:04;17.80;98.70
298;DHT22;133;49.626;9.680;2023-07-28T00:33:29;17.80;98.70
298;DHT22;133;49.626;9.680;2023-07-28T00:35:55;17.80;98.70
298;DHT22;133;49.626;9.680;2023-07-28T00:38:21;17.80;98.70
298;DHT22;133;49.626;9.680;2023-07-28T00:40:46;17.80;98.70
298;DHT22;133;49.626;9.680;2023-07-28T00:43:12;17.70;98.70
298;DHT22;133;49.626;9.680;2023-07-28T00:45:38;17.80;98.70
298;DHT22;133;49.626;9.680;2023-07-28T00:48:08;17.80;98.70
298;DHT22;133;49.626;9.680;2023-07-28T00:50:36;17.70;98.70
298;DHT22;133;49.626;9.680;2023-07-28T00:53:01;17.80;98.70
298;DHT22;133;49.626;9.680;2023-07-28T00:55:27;17.70;98.70
298;DHT22;133;49.626;9.680;2023-07-28T00:57:53;17.70;98.70
298;DHT22;133;49.626;9.680;2023-07-28T01:00:18;17.80;98.70
298;DHT22;133;49.626;9.680;2023-07-28T01:02:44;17.70;98.70
298;DHT22;133;49.626;9.680;2023-07-28T01:05:10;17.70;98.70
298;DHT22;133;49.626;9.680;2023-07-28T01:08:03;17.70;98.70
298;DHT22;133;49.626;9.680;2023-07-28T01:10:32;17.70;98.70
298;DHT22;133;49.626;9.680;2023-07-28T01:12:58;17.70;98.70
298;DHT22;133;49.626;9.680;2023-07-28T01:15:24;17.60;98.70
298;DHT22;133;49.626;9.680;2023-07-28T01:17:50;17.60;98.70
298;DHT22;133;49.626;9.680;2023-07-28T01:20:16;17.60;98.70
298;DHT22;133;49.626;9.680;2023-07-28T01:26:03;17.60;98.70
298;DHT22;133;49.626;9.680;2023-07-28T01:28:30;17.70;98.70
298;DHT22;133;49.626;9.680;2023-07-28T01:30:57;17.70;98.70
298;DHT22;133;49.626;9.680;2023-07-28T01:33:23;17.70;98.70
298;DHT22;133;49.626;9.680;2023-07-28T01:35:48;17.70;98.70
298;DHT22;133;49.626;9.680;2023-07-28T01:38:14;17.70;98.70
298;DHT22;133;49.626;9.680;2023-07-28T01:40:41;17.70;98.70
298;DHT22;133;49.626;9.680;2023-07-28T01:43:07;17.60;98.70
298;DHT22;133;49.626;9.680;2023-07-28T01:45:32;17.60;98.70
298;DHT22;133;49.626;9.680;2023-07-28T01:47:58;17.60;98.70
298;DHT22;133;49.626;9.680;2023-07-28T01:50:24;17.60;98.70
298;DHT22;133;49.626;9.680;2023-07-28T01:52:49;17.60;98.70
298;DHT22;133;49.626;9.680;2023-07-28T01:55:15;17.60;98.70
298;DHT22;133;49.626;9.680;2023-07-28T01:57:50;17.60;98.70
298;DHT22;133;49.626;9.680;2023-07-28T02:00:17;17.50;98.70
298;DHT22;133;49.626;9.680;2023-07-28T02:02:42;17.60;98.70
298;DHT22;133;49.626;9.680;2023-07-28T02:05:08;17.50;98.70
298;DHT22;133;49.626;9.680;2023-07-28T02:07:34;17.60;98.70
298;DHT22;133;49.626;9.680;2023-07-28T02:09:59;17.60;98.70
298;DHT22;133;49.626;9.680;2023-07-28T02:12:25;17.60;98.70
298;DHT22;133;49.626;9.680;2023-07-28T02:14:51;17.60;98.70
298;DHT22;133;49.626;9.680;2023-07-28T02:17:16;17.60;98.70
298;DHT22;133;49.626;9.680;2023-07-28T02:19:42;17.60;98.70
298;DHT22;133;49.626;9.680;2023-07-28T02:22:08;17.60;98.70
298;DHT22;133;49.626;9.680;2023-07-28T02:24:34;17.60;98.70
298;DHT22;133;49.626;9.680;2023-07-28T02:26:59;17.60;98.70
298;DHT22;133;49.626;9.680;2023-07-28T02:29:25;17.70;98.70
298;DHT22;133;49.626;9.680;2023-07-28T02:31:51;17.70;98.70
298;DHT22;133;49.626;9.680;2023-07-28T02:34:16;17.70;98.70
298;DHT22;133;49.626;9.680;2023-07-28T02:36:42;17.70;98.70
298;DHT22;133;49.626;9.680;2023-07-28T02:39:07;17.70;98.70
298;DHT22;133;49.626;9.680;2023-07-28T02:41:33;17.70;98.70
298;DHT22;133;49.626;9.680;2023-07-28T02:43:59;17.60;98.70
298;DHT22;133;49.626;9.680;2023-07-28T02:46:24;17.60;98.70
298;DHT22;133;49.626;9.680;2023-07-28T02:48:51;17.50;98.70
298;DHT22;133;49.626;9.680;2023-07-28T02:51:16;17.50;98.70
298;DHT22;133;49.626;9.680;2023-07-28T02:53:42;17.50;98.70
298;DHT22;133;49.626;9.680;2023-07-28T02:56:08;17.50;98.70
298;DHT22;133;49.626;9.680;2023-07-28T02:58:33;17.50;98.70
298;DHT22;133;49.626;9.680;2023-07-28T03:00:59;17.50;98.70
298;DHT22;133;49.626;9.680;2023-07-28T03:03:24;17.50;98.70
298;DHT22;133;49.626;9.680;2023-07-28T03:05:52;17.50;98.70
298;DHT22;133;49.626;9.680;2023-07-28T03:08:18;17.60;98.70
298;DHT22;133;49.626;9.680;2023-07-28T03:10:43;17.60;98.70
298;DHT22;133;49.626;9.680;2023-07-28T03:13:09;17.60;98.70
298;DHT22;133;49.626;9.680;2023-07-28T03:15:34;17.60;98.70
298;DHT22;133;49.626;9.680;2023-07-28T03:18:00;17.60;98.70
298;DHT22;133;49.626;9.680;2023-07-28T03:20:26;17.60;98.70
298;DHT22;133;49.626;9.680;2023-07-28T03:22:51;17.60;98.70
298;DHT22;133;49.626;9.680;2023-07-28T03:25:17;17.60;98.70
298;DHT22;133;49.626;9.680;2023-07-28T03:27:43;17.60;98.70
298;DHT22;133;49.626;9.680;2023-07-28T03:30:08;17.60;98.70
298;DHT22;133;49.626;9.680;2023-07-28T03:32:37;17.60;98.70
298;DHT22;133;49.626;9.680;2023-07-28T03:35:03;17.60;98.70
298;DHT22;133;49.626;9.680;2023-07-28T03:37:31;17.60;98.70
298;DHT22;133;49.626;9.680;2023-07-28T03:39:57;17.50;98.70
298;DHT22;133;49.626;9.680;2023-07-28T03:42:23;17.50;98.70
298;DHT22;133;49.626;9.680;2023-07-28T03:44:48;17.50;98.70
298;DHT22;133;49.626;9.680;2023-07-28T03:47:14;17.60;98.70
298;DHT22;133;49.626;9.680;2023-07-28T03:49:40;17.50;98.70
298;DHT22;133;49.626;9.680;2023-07-28T03:52:05;17.50;98.70
298;DHT22;133;49.626;9.680;2023-07-28T03:54:31;17.50;98.70
298;DHT22;133;49.626;9.680;2023-07-28T03:56:57;17.60;98.70
298;DHT22;133;49.626;9.680;2023-07-28T03:59:22;17.60;98.70
298;DHT22;133;49.626;9.680;2023-07-28T04:01:48;17.60;98.70
298;DHT22;133;49.626;9.680;2023-07-28T04:04:13;17.60;98.70
298;DHT22;133;49.626;9.680;2023-07-28T04:06:44;17.60;98.70
298;DHT22;133;49.626;9.680;2023-07-28T04:09:12;17.60;98.70
298;DHT22;133;49.626;9.680;2023-07-28T04:11:38;17.60;98.70
298;DHT22;133;49.626;9.680;2023-07-28T04:14:04;17.60;98.70
298;DHT22;133;49.626;9.680;2023-07-28T04:16:29;17.70;98.70
298;DHT22;133;49.626;9.680;2023-07-28T04:18:56;17.60;98.70
298;DHT22;133;49.626;9.680;2023-07-28T04:21:21;17.70;98.70
298;DHT22;133;49.626;9.680;2023-07-28T04:23:47;17.70;98.70
298;DHT22;133;49.626;9.680;2023-07-28T04:26:13;17.60;98.70
298;DHT22;133;49.626;9.680;2023-07-28T04:28:38;17.70;98.70
298;DHT22;133;49.626;9.680;2023-07-28T04:31:04;17.70;98.70
298;DHT22;133;49.626;9.680;2023-07-28T04:33:30;17.70;98.70
298;DHT22;133;49.626;9.680;2023-07-28T04:35:55;17.70;98.70
298;DHT22;133;49.626;9.680;2023-07-28T04:38:21;17.70;98.70
298;DHT22;133;49.626;9.680;2023-07-28T04:40:46;17.70;98.70
298;DHT22;133;49.626;9.680;2023-07-28T04:43:12;17.70;98.70
298;DHT22;133;49.626;9.680;2023-07-28T04:45:38;17.70;98.70
298;DHT22;133;49.626;9.680;2023-07-28T04:48:03;17.70;98.70
298;DHT22;133;49.626;9.680;2023-07-28T04:50:29;17.70;98.70
298;DHT22;133;49.626;9.680;2023-07-28T04:52:55;17.70;98.70
298;DHT22;133;49.626;9.680;2023-07-28T04:55:20;17.80;98.70
298;DHT22;133;49.626;9.680;2023-07-28T04:57:46;17.80;98.70
298;DHT22;133;49.626;9.680;2023-07-28T05:00:12;17.70;98.70
298;DHT22;133;49.626;9.680;2023-07-28T05:02:38;17.70;98.70
298;DHT22;133;49.626;9.680;2023-07-28T05:05:04;17.70;98.70
298;DHT22;133;49.626;9.680;2023-07-28T05:07:30;17.70;98.70
298;DHT22;133;49.626;9.680;2023-07-28T05:09:55;17.80;98.70
298;DHT22;133;49.626;9.680;2023-07-28T05:12:21;17.80;98.70
298;DHT22;133;49.626;9.680;2023-07-28T05:14:47;17.80;98.70
298;DHT22;133;49.626;9.680;2023-07-28T05:17:12;17.90;98.70
298;DHT22;133;49.626;9.680;2023-07-28T05:19:38;17.90;98.70
298;DHT22;133;49.626;9.680;2023-07-28T05:22:04;17.90;98.70
298;DHT22;133;49.626;9.680;2023-07-28T05:24:32;17.90;98.70
298;DHT22;133;49.626;9.680;2023-07-28T05:26:58;17.90;98.70
298;DHT22;133;49.626;9.680;2023-07-28T05:29:23;17.80;98.70
298;DHT22;133;49.626;9.680;2023-07-28T05:31:49;17.90;98.70
298;DHT22;133;49.626;9.680;2023-07-28T05:34:15;17.90;98.70
298;DHT22;133;49.626;9.680;2023-07-28T05:36:41;17.90;98.70
298;DHT22;133;49.626;9.680;2023-07-28T05:39:06;17.90;98.70
298;DHT22;133;49.626;9.680;2023-07-28T05:41:32;17.80;98.70
298;DHT22;133;49.626;9.680;2023-07-28T05:43:58;17.90;98.70
298;DHT22;133;49.626;9.680;2023-07-28T05:46:23;17.80;98.70
298;DHT22;133;49.626;9.680;2023-07-28T05:48:49;17.80;98.70
298;DHT22;133;49.626;9.680;2023-07-28T05:51:14;17.80;98.70
298;DHT22;133;49.626;9.680;2023-07-28T05:53:40;17.80;98.70
298;DHT22;133;49.626;9.680;2023-07-28T05:56:06;17.90;98.70
298;DHT22;133;49.626;9.680;2023-07-28T05:58:31;17.90;98.70
298;DHT22;133;49.626;9.680;2023-07-28T06:00:57;18.00;98.70
298;DHT22;133;49.626;9.680;2023-07-28T06:03:23;18.10;98.70
298;DHT22;133;49.626;9.680;2023-07-28T06:05:48;18.20;98.70
298;DHT22;133;49.626;9.680;2023-07-28T06:08:14;18.30;98.70
298;DHT22;133;49.626;9.680;2023-07-28T06:10:40;18.30;98.70
298;DHT22;133;49.626;9.680;2023-07-28T06:13:05;18.40;98.70
298;DHT22;133;49.626;9.680;2023-07-28T06:15:31;18.50;98.70
298;DHT22;133;49.626;9.680;2023-07-28T06:17:57;18.50;98.70
298;DHT22;133;49.626;9.680;2023-07-28T06:20:22;18.50;98.70
298;DHT22;133;49.626;9.680;2023-07-28T06:22:48;18.60;98.70
298;DHT22;133;49.626;9.680;2023-07-28T06:25:14;18.60;98.70
298;DHT22;133;49.626;9.680;2023-07-28T06:27:39;18.70;98.70
298;DHT22;133;49.626;9.680;2023-07-28T06:30:05;18.60;98.70
298;DHT22;133;49.626;9.680;2023-07-28T06:32:31;18.70;98.70
298;DHT22;133;49.626;9.680;2023-07-28T06:34:57;18.80;98.70
298;DHT22;133;49.626;9.680;2023-07-28T06:37:23;18.70;98.70
298;DHT22;133;49.626;9.680;2023-07-28T06:39:49;18.70;98.70
298;DHT22;133;49.626;9.680;2023-07-28T06:42:15;18.70;98.70
298;DHT22;133;49.626;9.680;2023-07-28T06:44:42;18.80;98.70
298;DHT22;133;49.626;9.680;2023-07-28T06:47:07;18.90;98.70
298;DHT22;133;49.626;9.680;2023-07-28T06:49:33;19.10;98.70
298;DHT22;133;49.626;9.680;2023-07-28T06:51:59;19.20;98.70
298;DHT22;133;49.626;9.680;2023-07-28T06:54:24;19.20;98.70
298;DHT22;133;49.626;9.680;2023-07-28T06:56:50;19.20;98.70
298;DHT22;133;49.626;9.680;2023-07-28T06:59:16;19.30;98.70
298;DHT22;133;49.626;9.680;2023-07-28T07:01:41;19.40;98.70
298;DHT22;133;49.626;9.680;2023-07-28T07:04:07;19.40;98.70
298;DHT22;133;49.626;9.680;2023-07-28T07:06:33;19.40;98.70
298;DHT22;133;49.626;9.680;2023-07-28T07:08:58;19.50;98.70
298;DHT22;133;49.626;9.680;2023-07-28T07:11:24;19.50;98.70
298;DHT22;133;49.626;9.680;2023-07-28T07:13:50;19.60;98.70
298;DHT22;133;49.626;9.680;2023-07-28T07:16:16;19.60;98.70
298;DHT22;133;49.626;9.680;2023-07-28T07:18:43;19.60;98.70
298;DHT22;133;49.626;9.680;2023-07-28T07:21:09;19.50;98.70
298;DHT22;133;49.626;9.680;2023-07-28T07:23:36;19.50;98.70
298;DHT22;133;49.626;9.680;2023-07-28T07:26:01;19.50;98.70
298;DHT22;133;49.626;9.680;2023-07-28T07:28:27;19.50;98.70
298;DHT22;133;49.626;9.680;2023-07-28T07:30:56;19.50;98.70
298;DHT22;133;49.626;9.680;2023-07-28T07:33:23;19.50;98.70
298;DHT22;133;49.626;9.680;2023-07-28T07:35:48;19.40;98.70
298;DHT22;133;49.626;9.680;2023-07-28T07:38:14;19.30;98.70
298;DHT22;133;49.626;9.680;2023-07-28T07:40:40;19.30;98.70
298;DHT22;133;49.626;9.680;2023-07-28T07:43:05;19.20;98.70
298;DHT22;133;49.626;9.680;2023-07-28T07:45:31;19.10;98.70
298;DHT22;133;49.626;9.680;2023-07-28T07:47:58;19.10;98.70
298;DHT22;133;49.626;9.680;2023-07-28T07:50:24;19.00;98.70
298;DHT22;133;49.626;9.680;2023-07-28T07:52:50;19.00;98.70
298;DHT22;133;49.626;9.680;2023-07-28T07:55:15;19.10;98.70
298;DHT22;133;49.626;9.680;2023-07-28T07:57:41;19.10;98.70
298;DHT22;133;49.626;9.680;2023-07-28T08:00:08;19.20;98.70
298;DHT22;133;49.626;9.680;2023-07-28T08:02:34;19.30;98.70
298;DHT22;133;49.626;9.680;2023-07-28T08:05:00;19.30;98.70
298;DHT22;133;49.626;9.680;2023-07-28T08:07:26;19.30;98.70
298;DHT22;133;49.626;9.680;2023-07-28T08:09:52;19.30;98.70
298;DHT22;133;49.626;9.680;2023-07-28T08:12:17;19.30;98.70
298;DHT22;133;49.626;9.680;2023-07-28T08:14:44;19.40;98.70
298;DHT22;133;49.626;9.680;2023-07-28T08:17:14;19.60;98.70
298;DHT22;133;49.626;9.680;2023-07-28T08:19:40;19.80;98.70
298;DHT22;133;49.626;9.680;2023-07-28T08:22:06;19.80;98.70
298;DHT22;133;49.626;9.680;2023-07-28T08:24:32;19.90;98.70
298;DHT22;133;49.626;9.680;2023-07-28T08:26:58;19.90;98.70
298;DHT22;133;49.626;9.680;2023-07-28T08:29:24;20.10;98.70
298;DHT22;133;49.626;9.680;2023-07-28T08:31:51;20.10;98.10
298;DHT22;133;49.626;9.680;2023-07-28T08:34:16;20.20;98.10
298;DHT22;133;49.626;9.680;2023-07-28T08:36:43;20.40;97.90
298;DHT22;133;49.626;9.680;2023-07-28T08:39:09;20.40;96.70
298;DHT22;133;49.626;9.680;2023-07-28T08:41:35;20.50;97.10
298;DHT22;133;49.626;9.680;2023-07-28T08:44:02;20.60;97.00
298;DHT22;133;49.626;9.680;2023-07-28T08:46:27;20.30;95.40
298;DHT22;133;49.626;9.680;2023-07-28T08:48:54;20.20;95.60
298;DHT22;133;49.626;9.680;2023-07-28T08:51:22;20.30;95.60
298;DHT22;133;49.626;9.680;2023-07-28T08:53:49;20.20;96.40
298;DHT22;133;49.626;9.680;2023-07-28T08:56:15;20.30;96.30
298;DHT22;133;49.626;9.680;2023-07-28T08:58:40;20.40;95.50
298;DHT22;133;49.626;9.680;2023-07-28T09:01:06;20.50;93.90
298;DHT22;133;49.626;9.680;2023-07-28T09:03:31;20.50;94.20
298;DHT22;133;49.626;9.680;2023-07-28T09:06:02;20.60;94.40
298;DHT22;133;49.626;9.680;2023-07-28T09:08:31;20.50;94.50
298;DHT22;133;49.626;9.680;2023-07-28T09:11:02;20.60;94.90
298;DHT22;133;49.626;9.680;2023-07-28T09:13:39;20.80;94.20
298;DHT22;133;49.626;9.680;2023-07-28T09:16:19;21.00;93.20
298;DHT22;133;49.626;9.680;2023-07-28T09:18:45;21.20;92.50
298;DHT22;133;49.626;9.680;2023-07-28T09:21:20;21.40;91.50
298;DHT22;133;49.626;9.680;2023-07-28T09:23:47;21.50;92.00
298;DHT22;133;49.626;9.680;2023-07-28T09:28:58;21.60;91.70
298;DHT22;133;49.626;9.680;2023-07-28T09:31:30;21.50;91.50
298;DHT22;133;49.626;9.680;2023-07-28T09:33:59;21.30;91.90
298;DHT22;133;49.626;9.680;2023-07-28T09:36:24;21.50;91.40
298;DHT22;133;49.626;9.680;2023-07-28T09:38:51;21.60;91.10
298;DHT22;133;49.626;9.680;2023-07-28T09:41:18;21.60;90.80
298;DHT22;133;49.626;9.680;2023-07-28T09:43:45;21.60;90.40
298;DHT22;133;49.626;9.680;2023-07-28T09:46:15;21.70;90.00
298;DHT22;133;49.626;9.680;2023-07-28T09:48:45;21.90;88.70
298;DHT22;133;49.626;9.680;2023-07-28T09:51:17;22.60;87.70
298;DHT22;133;49.626;9.680;2023-07-28T09:54:19;23.10;85.30
298;DHT22;133;49.626;9.680;2023-07-28T09:56:59;23.60;84.60
298;DHT22;133;49.626;9.680;2023-07-28T09:59:39;24.10;82.50
298;DHT22;133;49.626;9.680;2023-07-28T10:02:05;23.90;82.80
298;DHT22;133;49.626;9.680;2023-07-28T10:04:38;23.40;83.60
298;DHT22;133;49.626;9.680;2023-07-28T10:07:05;23.20;84.10
298;DHT22;133;49.626;9.680;2023-07-28T10:09:32;22.40;85.50
298;DHT22;133;49.626;9.680;2023-07-28T10:12:00;22.40;85.70
298;DHT22;133;49.626;9.680;2023-07-28T10:16:54;23.40;83.10
298;DHT22;133;49.626;9.680;2023-07-28T10:19:33;23.50;82.40
298;DHT22;133;49.626;9.680;2023-07-28T10:22:08;23.60;82.40
298;DHT22;133;49.626;9.680;2023-07-28T10:24:52;23.50;82.30
298;DHT22;133;49.626;9.680;2023-07-28T10:30:01;23.00;84.90
298;DHT22;133;49.626;9.680;2023-07-28T10:32:40;22.80;84.90
298;DHT22;133;49.626;9.680;2023-07-28T10:35:23;23.00;84.90
298;DHT22;133;49.626;9.680;2023-07-28T10:37:50;22.80;84.60
298;DHT22;133;49.626;9.680;2023-07-28T10:40:29;22.80;84.70
298;DHT22;133;49.626;9.680;2023-07-28T10:43:02;23.30;84.40
298;DHT22;133;49.626;9.680;2023-07-28T10:45:30;24.30;80.70
298;DHT22;133;49.626;9.680;2023-07-28T10:47:57;25.20;79.40
298;DHT22;133;49.626;9.680;2023-07-28T10:50:31;25.10;77.50
298;DHT22;133;49.626;9.680;2023-07-28T10:53:02;24.60;78.60
298;DHT22;133;49.626;9.680;2023-07-28T10:55:27;24.50;79.50
298;DHT22;133;49.626;9.680;2023-07-28T10:57:54;24.20;79.40
298;DHT22;133;49.626;9.680;2023-07-28T11:00:22;23.70;80.30
298;DHT22;133;49.626;9.680;2023-07-28T11:02:49;23.80;81.00
298;DHT22;133;49.626;9.680;2023-07-28T11:05:23;24.20;80.60
298;DHT22;133;49.626;9.680;2023-07-28T11:07:50;24.90;78.30
298;DHT22;133;49.626;9.680;2023-07-28T11:10:16;25.20;76.60
298;DHT22;133;49.626;9.680;2023-07-28T11:12:46;25.00;76.40
298;DHT22;133;49.626;9.680;2023-07-28T11:15:14;25.00;77.60
298;DHT22;133;49.626;9.680;2023-07-28T11:17:41;24.70;78.00
298;DHT22;133;49.626;9.680;2023-07-28T11:20:24;24.10;79.80
298;DHT22;133;49.626;9.680;2023-07-28T11:22:55;24.00;80.60
298;DHT22;133;49.626;9.680;2023-07-28T11:25:25;24.20;79.60
298;DHT22;133;49.626;9.680;2023-07-28T11:27:51;24.40;78.80
298;DHT22;133;49.626;9.680;2023-07-28T11:30:19;24.50;78.90
298;DHT22;133;49.626;9.680;2023-07-28T11:32:46;24.50;78.80
298;DHT22;133;49.626;9.680;2023-07-28T11:35:14;24.10;79.30
298;DHT22;133;49.626;9.680;2023-07-28T11:37:43;24.00;79.90
298;DHT22;133;49.626;9.680;2023-07-28T11:40:09;23.70;80.50
298;DHT22;133;49.626;9.680;2023-07-28T11:42:46;23.50;80.60
298;DHT22;133;49.626;9.680;2023-07-28T11:45:13;23.50;81.00
298;DHT22;133;49.626;9.680;2023-07-28T11:47:39;23.20;80.90
298;DHT22;133;49.626;9.680;2023-07-28T11:50:05;23.20;82.10
298;DHT22;133;49.626;9.680;2023-07-28T11:52:34;23.30;82.30
298;DHT22;133;49.626;9.680;2023-07-28T11:55:01;23.40;82.30
298;DHT22;133;49.626;9.680;2023-07-28T11:57:29;23.40;82.20
298;DHT22;133;49.626;9.680;2023-07-28T11:59:58;23.70;81.50
298;DHT22;133;49.626;9.680;2023-07-28T12:02:29;23.90;80.00
298;DHT22;133;49.626;9.680;2023-07-28T12:04:56;24.00;79.10
298;DHT22;133;49.626;9.680;2023-07-28T12:07:33;24.20;79.60
298;DHT22;133;49.626;9.680;2023-07-28T12:10:06;24.50;78.50
298;DHT22;133;49.626;9.680;2023-07-28T12:12:54;24.50;78.20
298;DHT22;133;49.626;9.680;2023-07-28T12:15:22;24.70;78.10
298;DHT22;133;49.626;9.680;2023-07-28T12:20:53;24.80;77.30
298;DHT22;133;49.626;9.680;2023-07-28T12:23:21;24.80;77.60
298;DHT22;133;49.626;9.680;2023-07-28T12:25:48;24.90;78.10
298;DHT22;133;49.626;9.680;2023-07-28T12:28:14;24.60;78.00
298;DHT22;133;49.626;9.680;2023-07-28T12:30:40;24.60;78.40
298;DHT22;133;49.626;9.680;2023-07-28T12:33:06;24.80;78.20
298;DHT22;133;49.626;9.680;2023-07-28T12:35:33;25.00;77.40
298;DHT22;133;49.626;9.680;2023-07-28T12:38:06;25.20;76.90
298;DHT22;133;49.626;9.680;2023-07-28T12:40:32;25.40;75.90
298;DHT22;133;49.626;9.680;2023-07-28T12:43:00;25.50;75.40
298;DHT22;133;49.626;9.680;2023-07-28T12:45:27;25.30;75.80
298;DHT22;133;49.626;9.680;2023-07-28T12:47:53;25.00;76.10
298;DHT22;133;49.626;9.680;2023-07-28T12:50:22;24.90;76.30
298;DHT22;133;49.626;9.680;2023-07-28T12:52:48;24.80;76.30
298;DHT22;133;49.626;9.680;2023-07-28T12:55:15;24.60;77.10
298;DHT22;133;49.626;9.680;2023-07-28T12:57:41;24.40;77.60
298;DHT22;133;49.626;9.680;2023-07-28T13:00:08;24.40;77.70
298;DHT22;133;49.626;9.680;2023-07-28T13:02:39;24.20;77.80
298;DHT22;133;49.626;9.680;2023-07-28T13:05:06;24.00;78.10
298;DHT22;133;49.626;9.680;2023-07-28T13:07:32;24.00;78.40
298;DHT22;133;49.626;9.680;2023-07-28T13:09:58;23.80;78.10
298;DHT22;133;49.626;9.680;2023-07-28T13:12:23;23.70;78.00
298;DHT22;133;49.626;9.680;2023-07-28T13:14:49;23.40;78.60
298;DHT22;133;49.626;9.680;2023-07-28T13:17:15;23.40;78.50
298;DHT22;133;49.626;9.680;2023-07-28T13:19:42;23.40;79.30
298;DHT22;133;49.626;9.680;2023-07-28T13:22:07;23.50;79.20
298;DHT22;133;49.626;9.680;2023-07-28T13:24:33;23.70;78.90
298;DHT22;133;49.626;9.680;2023-07-28T13:26:59;23.90;78.80
298;DHT22;133;49.626;9.680;2023-07-28T13:29:24;24.20;78.20
298;DHT22;133;49.626;9.680;2023-07-28T13:31:50;24.40;77.30
298;DHT22;133;49.626;9.680;2023-07-28T13:34:16;24.20;77.50
298;DHT22;133;49.626;9.680;2023-07-28T13:36:42;24.10;78.30
298;DHT22;133;49.626;9.680;2023-07-28T13:39:09;24.10;78.30
298;DHT22;133;49.626;9.680;2023-07-28T13:41:34;24.40;77.60
298;DHT22;133;49.626;9.680;2023-07-28T13:44:00;24.50;76.90
298;DHT22;133;49.626;9.680;2023-07-28T13:46:26;24.50;77.10
298;DHT22;133;49.626;9.680;2023-07-28T13:48:52;24.60;77.70
298;DHT22;133;49.626;9.680;2023-07-28T13:51:17;24.50;77.70
298;DHT22;133;49.626;9.680;2023-07-28T13:53:43;24.40;78.40
298;DHT22;133;49.626;9.680;2023-07-28T13:56:09;24.10;79.10
298;DHT22;133;49.626;9.680;2023-07-28T13:58:34;24.10;79.70
298;DHT22;133;49.626;9.680;2023-07-28T14:01:01;24.10;79.80
298;DHT22;133;49.626;9.680;2023-07-28T14:03:30;23.90;80.20
298;DHT22;133;49.626;9.680;2023-07-28T14:05:55;23.80;80.60
298;DHT22;133;49.626;9.680;2023-07-28T14:08:21;23.60;80.90
298;DHT22;133;49.626;9.680;2023-07-28T14:10:47;23.40;81.30
298;DHT22;133;49.626;9.680;2023-07-28T14:13:12;23.10;82.50
298;DHT22;133;49.626;9.680;2023-07-28T14:15:39;23.00;83.00
298;DHT22;133;49.626;9.680;2023-07-28T14:18:04;22.90;83.30
298;DHT22;133;49.626;9.680;2023-07-28T14:20:30;22.80;83.70
298;DHT22;133;49.626;9.680;2023-07-28T14:22:59;22.60;84.20
298;DHT22;133;49.626;9.680;2023-07-28T14:25:24;22.50;84.90
298;DHT22;133;49.626;9.680;2023-07-28T14:27:50;22.50;84.90
298;DHT22;133;49.626;9.680;2023-07-28T14:30:16;22.50;84.60
298;DHT22;133;49.626;9.680;2023-07-28T14:32:41;22.40;84.70
298;DHT22;133;49.626;9.680;2023-07-28T14:35:07;22.20;85.00
298;DHT22;133;49.626;9.680;2023-07-28T14:37:33;22.00;85.50
298;DHT22;133;49.626;9.680;2023-07-28T14:39:59;22.00;86.50
298;DHT22;133;49.626;9.680;2023-07-28T14:42:24;21.80;87.80
298;DHT22;133;49.626;9.680;2023-07-28T14:44:50;21.70;88.40
298;DHT22;133;49.626;9.680;2023-07-28T14:47:15;21.60;88.70
298;DHT22;133;49.626;9.680;2023-07-28T14:49:41;21.60;88.70
298;DHT22;133;49.626;9.680;2023-07-28T14:52:07;21.60;88.60
298;DHT22;133;49.626;9.680;2023-07-28T14:54:33;21.60;88.80
298;DHT22;133;49.626;9.680;2023-07-28T14:56:58;21.60;89.00
298;DHT22;133;49.626;9.680;2023-07-28T14:59:24;21.60;88.90
298;DHT22;133;49.626;9.680;2023-07-28T15:01:50;21.70;89.00
298;DHT22;133;49.626;9.680;2023-07-28T15:04:15;21.60;88.70
298;DHT22;133;49.626;9.680;2023-07-28T15:06:41;21.70;88.70
298;DHT22;133;49.626;9.680;2023-07-28T15:09:07;21.70;88.80
298;DHT22;133;49.626;9.680;2023-07-28T15:11:32;21.40;89.20
298;DHT22;133;49.626;9.680;2023-07-28T15:13:58;21.30;90.10
298;DHT22;133;49.626;9.680;2023-07-28T15:16:23;21.30;89.80
298;DHT22;133;49.626;9.680;2023-07-28T15:18:49;21.40;90.10
298;DHT22;133;49.626;9.680;2023-07-28T15:21:15;21.50;89.90
298;DHT22;133;49.626;9.680;2023-07-28T15:23:40;21.50;89.70
298;DHT22;133;49.626;9.680;2023-07-28T15:26:06;21.50;90.00
298;DHT22;133;49.626;9.680;2023-07-28T15:28:32;21.40;90.50
298;DHT22;133;49.626;9.680;2023-07-28T15:30:57;21.40;91.00
298;DHT22;133;49.626;9.680;2023-07-28T15:33:23;21.30;91.70
298;DHT22;133;49.626;9.680;2023-07-28T15:35:50;21.20;92.20
298;DHT22;133;49.626;9.680;2023-07-28T15:38:16;21.10;92.50
298;DHT22;133;49.626;9.680;2023-07-28T15:40:42;21.00;93.20
298;DHT22;133;49.626;9.680;2023-07-28T15:43:07;21.00;93.70
298;DHT22;133;49.626;9.680;2023-07-28T15:45:33;21.00;93.90
298;DHT22;133;49.626;9.680;2023-07-28T15:47:59;21.10;93.80
298;DHT22;133;49.626;9.680;2023-07-28T15:50:25;21.00;93.50
298;DHT22;133;49.626;9.680;2023-07-28T15:52:51;21.00;94.10
298;DHT22;133;49.626;9.680;2023-07-28T15:55:18;21.00;93.80
298;DHT22;133;49.626;9.680;2023-07-28T15:57:43;20.90;94.30
298;DHT22;133;49.626;9.680;2023-07-28T16:00:09;20.80;95.00
298;DHT22;133;49.626;9.680;2023-07-28T16:02:35;20.70;95.00
298;DHT22;133;49.626;9.680;2023-07-28T16:05:01;20.70;95.20
298;DHT22;133;49.626;9.680;2023-07-28T16:07:27;20.80;95.30
298;DHT22;133;49.626;9.680;2023-07-28T16:09:55;20.80;94.80
298;DHT22;133;49.626;9.680;2023-07-28T16:12:21;20.80;95.00
298;DHT22;133;49.626;9.680;2023-07-28T16:14:47;20.70;94.80
298;DHT22;133;49.626;9.680;2023-07-28T16:17:12;20.70;94.80
298;DHT22;133;49.626;9.680;2023-07-28T16:19:38;20.70;94.70
298;DHT22;133;49.626;9.680;2023-07-28T16:22:04;20.60;94.70
298;DHT22;133;49.626;9.680;2023-07-28T16:24:30;20.60;94.60
298;DHT22;133;49.626;9.680;2023-07-28T16:26:55;20.50;94.80
298;DHT22;133;49.626;9.680;2023-07-28T16:29:21;20.40;94.70
298;DHT22;133;49.626;9.680;2023-07-28T16:31:48;20.50;95.00
298;DHT22;133;49.626;9.680;2023-07-28T16:34:13;20.50;95.10
298;DHT22;133;49.626;9.680;2023-07-28T16:36:39;20.50;95.50
298;DHT22;133;49.626;9.680;2023-07-28T16:39:04;20.50;95.30
298;DHT22;133;49.626;9.680;2023-07-28T16:41:30;20.50;95.60
298;DHT22;133;49.626;9.680;2023-07-28T16:43:56;20.50;95.70
298;DHT22;133;49.626;9.680;2023-07-28T16:46:21;20.50;95.40